Krusa, Denmark
Current Conditions -  °F | °C
As of 5:20 PM on Friday 24 Oct 2014 (Local Time) from ETGG Reporting Station
Broken Clouds Broken Clouds  
Wind Chill: 55°   Ceiling: 9000
Heat Index: 55°   Visibility: 6mi
Dew Point: 48°   Wind: 18mph
Humidity: 77%   Direction: 170°S
Pressure: 30"   Gusts: 30mph
Location:  54.85°N, 9.4°E
Report Text: ETGG 241520Z 17016G26KT 9999 SCT033 BKN090 13/09 Q1016 BLU
Loading
Personal Weather Stations






























Interactive Weather Map
Tropical Storm Tracking
New forecast layout! Learn more

10-Day Weather Forecast

Advertisements
Track Severe Weather on mobile